createdAt,value
2018-09-13T00:00:24.216Z,9.50
2018-09-13T00:02:52.722Z,9.50
2018-09-13T00:05:21.237Z,9.40
2018-09-13T00:07:49.741Z,9.40
2018-09-13T00:10:18.256Z,9.40
2018-09-13T00:12:46.782Z,9.40
2018-09-13T00:15:15.268Z,9.40
2018-09-13T00:17:43.783Z,9.30
2018-09-13T00:20:12.272Z,9.30
2018-09-13T00:22:40.761Z,9.30
2018-09-13T00:25:09.273Z,9.30
2018-09-13T00:27:37.800Z,9.20
2018-09-13T00:30:06.328Z,9.20
2018-09-13T00:32:34.891Z,9.20
2018-09-13T00:35:03.410Z,9.10
2018-09-13T00:37:31.938Z,9.10
2018-09-13T00:40:00.505Z,9.10
2018-09-13T00:42:29.023Z,9.00
2018-09-13T00:44:57.513Z,9.00
2018-09-13T00:47:26.051Z,8.90
2018-09-13T00:49:54.572Z,8.90
2018-09-13T00:52:23.077Z,8.90
2018-09-13T00:54:51.583Z,8.80
2018-09-13T00:57:20.109Z,8.80
2018-09-13T00:59:48.603Z,8.70
2018-09-13T01:02:17.133Z,8.70
2018-09-13T01:04:45.634Z,8.70
2018-09-13T01:07:14.149Z,8.70
2018-09-13T01:09:42.616Z,8.60
2018-09-13T01:12:11.101Z,8.60
2018-09-13T01:14:39.644Z,8.60
2018-09-13T01:17:08.144Z,8.50
2018-09-13T01:19:36.697Z,8.50
2018-09-13T01:22:05.245Z,8.50
2018-09-13T01:24:33.762Z,8.40
2018-09-13T01:27:02.272Z,8.40
2018-09-13T01:29:30.853Z,8.40
2018-09-13T01:31:59.342Z,8.40
2018-09-13T01:34:27.852Z,8.40
2018-09-13T01:36:56.381Z,8.30
2018-09-13T01:39:24.862Z,8.20
2018-09-13T01:41:53.404Z,8.20
2018-09-13T01:44:22.158Z,8.30
2018-09-13T01:46:50.772Z,8.30
2018-09-13T01:49:19.260Z,8.40
2018-09-13T01:51:47.773Z,8.30
2018-09-13T01:54:16.246Z,8.30
2018-09-13T01:56:44.769Z,8.20
2018-09-13T01:59:13.303Z,8.10
2018-09-13T02:01:41.853Z,8.10
2018-09-13T02:04:10.432Z,8.00
2018-09-13T02:06:38.948Z,8.00
2018-09-13T02:09:09.213Z,7.90
2018-09-13T02:11:37.764Z,7.90
2018-09-13T02:14:06.268Z,7.80
2018-09-13T02:16:34.812Z,7.80
2018-09-13T02:19:03.295Z,7.80
2018-09-13T02:21:31.823Z,7.80
2018-09-13T02:24:00.333Z,7.80
2018-09-13T02:26:28.876Z,7.80
2018-09-13T02:28:57.387Z,7.80
2018-09-13T02:31:25.907Z,7.70
2018-09-13T02:33:54.376Z,7.70
2018-09-13T02:36:22.900Z,7.70
2018-09-13T02:38:51.385Z,7.60
2018-09-13T02:41:19.901Z,7.60
2018-09-13T02:43:48.449Z,7.50
2018-09-13T02:46:16.947Z,7.60
2018-09-13T02:48:45.510Z,7.70
2018-09-13T02:51:14.043Z,7.70
2018-09-13T02:53:42.565Z,7.70
2018-09-13T02:56:11.043Z,7.70
2018-09-13T02:58:39.577Z,7.60
2018-09-13T03:01:08.125Z,7.60
2018-09-13T03:03:36.604Z,7.50
2018-09-13T03:06:05.149Z,7.40
2018-09-13T03:08:33.669Z,7.40
2018-09-13T03:11:02.187Z,7.30
2018-09-13T03:13:30.702Z,7.30
2018-09-13T03:15:59.233Z,7.30
2018-09-13T03:18:27.737Z,7.20
2018-09-13T03:20:56.289Z,7.20
2018-09-13T03:23:24.809Z,7.20
2018-09-13T03:25:53.324Z,7.20
2018-09-13T03:28:21.840Z,7.10
2018-09-13T03:30:50.370Z,7.10
2018-09-13T03:33:18.904Z,7.10
2018-09-13T03:35:47.416Z,7.10
2018-09-13T03:38:15.904Z,7.20
2018-09-13T03:40:44.434Z,7.30
2018-09-13T03:43:12.979Z,7.30
2018-09-13T03:45:41.490Z,7.30
2018-09-13T03:48:10.001Z,7.30
2018-09-13T03:50:38.509Z,7.30
2018-09-13T03:53:07.056Z,7.30
2018-09-13T03:55:41.984Z,7.20
2018-09-13T03:58:10.473Z,7.20
2018-09-13T04:00:39.009Z,7.10
2018-09-13T04:03:07.534Z,7.10
2018-09-13T04:05:36.027Z,7.00
2018-09-13T04:08:04.668Z,6.90
2018-09-13T04:10:33.201Z,6.90
2018-09-13T04:13:01.752Z,6.90
2018-09-13T04:15:30.269Z,6.90
2018-09-13T04:17:58.854Z,6.90
2018-09-13T04:20:27.337Z,6.90
2018-09-13T04:22:55.857Z,6.80
2018-09-13T04:25:24.341Z,6.80
2018-09-13T04:27:52.848Z,6.80
2018-09-13T04:30:21.397Z,6.80
2018-09-13T04:32:49.872Z,6.80
2018-09-13T04:35:18.436Z,6.80
2018-09-13T04:37:46.943Z,6.80
2018-09-13T04:40:15.524Z,6.80
2018-09-13T04:42:43.992Z,6.80
2018-09-13T04:45:12.493Z,6.80
2018-09-13T04:47:40.979Z,6.80
2018-09-13T04:50:09.544Z,6.70
2018-09-13T04:52:38.054Z,6.70
2018-09-13T04:55:06.592Z,6.80
2018-09-13T04:57:35.108Z,6.80
2018-09-13T05:00:03.627Z,6.80
2018-09-13T05:02:32.188Z,6.80
2018-09-13T05:05:00.716Z,6.80
2018-09-13T05:07:29.223Z,6.80
2018-09-13T05:09:57.690Z,6.70
2018-09-13T05:12:26.214Z,6.70
2018-09-13T05:14:54.700Z,6.80
2018-09-13T05:17:23.212Z,6.80
2018-09-13T05:19:51.744Z,6.90
2018-09-13T05:22:20.264Z,7.10
2018-09-13T05:24:48.738Z,7.10
2018-09-13T05:27:17.260Z,7.10
2018-09-13T05:29:45.807Z,7.10
2018-09-13T05:32:14.404Z,7.00
2018-09-13T05:34:45.996Z,7.00
2018-09-13T05:37:14.526Z,7.00
2018-09-13T05:39:43.053Z,7.10
2018-09-13T05:42:11.531Z,7.10
2018-09-13T05:44:40.097Z,7.20
2018-09-13T05:47:08.583Z,7.30
2018-09-13T05:49:37.090Z,7.40
2018-09-13T05:52:05.556Z,7.40
2018-09-13T05:54:34.093Z,7.40
2018-09-13T05:57:02.617Z,7.40
2018-09-13T05:59:31.093Z,7.40
2018-09-13T06:01:59.633Z,7.50
2018-09-13T06:04:28.128Z,7.50
2018-09-13T06:06:56.643Z,7.60
2018-09-13T06:09:31.836Z,7.60
2018-09-13T06:12:00.348Z,7.80
2018-09-13T06:14:28.823Z,7.90
2018-09-13T06:16:57.366Z,8.10
2018-09-13T06:19:25.865Z,8.20
2018-09-13T06:21:55.275Z,8.30
2018-09-13T06:24:23.817Z,8.40
2018-09-13T06:26:52.451Z,8.40
2018-09-13T06:29:21.012Z,8.50
2018-09-13T06:31:49.503Z,8.50
2018-09-13T06:34:18.062Z,8.60
2018-09-13T06:36:46.576Z,8.80
2018-09-13T06:39:15.137Z,8.80
2018-09-13T06:41:43.612Z,8.90
2018-09-13T06:44:12.152Z,9.00
2018-09-13T06:46:40.689Z,9.10
2018-09-13T06:49:09.256Z,9.30
2018-09-13T06:51:37.792Z,9.50
2018-09-13T06:54:06.401Z,9.70
2018-09-13T06:56:34.935Z,9.90
2018-09-13T06:59:03.501Z,10.20
2018-09-13T07:01:32.040Z,10.30
2018-09-13T07:04:00.537Z,10.50
2018-09-13T07:06:29.061Z,10.60
2018-09-13T07:08:57.612Z,10.70
2018-09-13T07:11:26.317Z,10.80
2018-09-13T07:13:55.285Z,10.90
2018-09-13T07:16:23.811Z,11.00
2018-09-13T07:18:52.339Z,11.20
2018-09-13T07:21:20.857Z,11.20
2018-09-13T07:23:49.392Z,11.30
2018-09-13T07:26:17.937Z,11.40
2018-09-13T07:28:46.429Z,11.60
2018-09-13T07:31:14.957Z,11.70
2018-09-13T07:33:43.446Z,11.80
2018-09-13T07:36:11.999Z,11.90
2018-09-13T07:38:40.532Z,12.10
2018-09-13T07:41:09.122Z,12.20
2018-09-13T07:43:37.659Z,12.30
2018-09-13T07:46:12.892Z,12.40
2018-09-13T07:48:41.407Z,12.50
2018-09-13T07:51:09.990Z,12.60
2018-09-13T07:53:38.503Z,12.70
2018-09-13T07:56:07.092Z,12.80
2018-09-13T07:58:35.650Z,12.80
2018-09-13T08:01:04.189Z,12.90
2018-09-13T08:03:32.728Z,13.00
2018-09-13T08:06:01.254Z,13.10
2018-09-13T08:08:29.816Z,13.20
2018-09-13T08:10:58.381Z,13.30
2018-09-13T08:13:26.944Z,13.30
2018-09-13T08:15:55.479Z,13.40
2018-09-13T08:18:23.972Z,13.50
2018-09-13T08:20:52.502Z,13.60
2018-09-13T08:23:21.106Z,13.80
2018-09-13T08:25:49.608Z,13.90
2018-09-13T08:28:24.785Z,14.00
2018-09-13T08:30:53.280Z,14.10
2018-09-13T08:33:21.907Z,14.20
2018-09-13T08:35:50.356Z,14.30
2018-09-13T08:38:18.933Z,14.50
2018-09-13T08:40:47.529Z,14.60
2018-09-13T08:43:16.025Z,14.70
2018-09-13T08:45:44.547Z,14.80
2018-09-13T08:48:13.037Z,15.00
2018-09-13T08:50:41.579Z,15.10
2018-09-13T08:53:10.137Z,15.30
2018-09-13T08:55:38.636Z,15.40
2018-09-13T08:58:07.256Z,15.60
2018-09-13T09:00:35.812Z,15.90
2018-09-13T09:03:04.337Z,16.10
2018-09-13T09:05:32.880Z,16.30
2018-09-13T09:08:01.420Z,16.50
2018-09-13T09:10:29.921Z,16.70
2018-09-13T09:12:58.511Z,16.90
2018-09-13T09:15:27.107Z,16.90
2018-09-13T09:17:55.606Z,16.90
2018-09-13T09:20:24.143Z,16.90
2018-09-13T09:22:52.721Z,17.00
2018-09-13T09:25:21.247Z,17.10
2018-09-13T09:27:49.767Z,17.30
2018-09-13T09:30:18.297Z,17.30
2018-09-13T09:32:46.814Z,17.40
2018-09-13T09:35:15.349Z,17.40
2018-09-13T09:37:43.887Z,17.50
2018-09-13T09:40:12.448Z,17.50
2018-09-13T09:42:41.010Z,17.50
2018-09-13T09:45:09.528Z,17.50
2018-09-13T09:47:38.060Z,17.50
2018-09-13T09:50:06.908Z,17.50
2018-09-13T09:52:35.417Z,17.30
2018-09-13T09:55:03.964Z,17.10
2018-09-13T09:57:32.498Z,16.90
2018-09-13T10:00:01.005Z,17.00
2018-09-13T10:02:29.545Z,17.00
2018-09-13T10:04:58.037Z,17.20
2018-09-13T10:07:26.618Z,17.30
2018-09-13T10:09:55.208Z,17.40
2018-09-13T10:12:23.816Z,17.50
2018-09-13T10:14:57.717Z,17.60
2018-09-13T10:17:31.532Z,17.70
2018-09-13T10:20:05.254Z,17.70
2018-09-13T10:22:39.197Z,17.80
2018-09-13T10:25:12.899Z,17.90
2018-09-13T10:27:46.632Z,17.80
2018-09-13T10:30:20.429Z,17.60
2018-09-13T10:32:54.236Z,17.30
2018-09-13T10:35:27.990Z,17.10
2018-09-13T10:38:01.940Z,16.90
2018-09-13T10:40:35.865Z,16.80
2018-09-13T10:43:09.732Z,17.10
2018-09-13T10:45:43.578Z,17.30
2018-09-13T10:48:17.518Z,17.40
2018-09-13T10:50:51.422Z,17.60
2018-09-13T10:53:22.480Z,17.70
2018-09-13T10:55:51.103Z,17.70
2018-09-13T10:58:19.569Z,17.70
2018-09-13T11:00:48.124Z,17.70
2018-09-13T11:03:16.636Z,17.70
2018-09-13T11:05:45.285Z,17.80
2018-09-13T11:08:14.005Z,17.70
2018-09-13T11:10:42.738Z,17.80
2018-09-13T11:13:20.789Z,17.80
2018-09-13T11:15:49.317Z,17.80
2018-09-13T11:18:19.757Z,17.70
2018-09-13T11:20:48.236Z,17.80
2018-09-13T11:23:16.705Z,17.80
2018-09-13T11:25:45.261Z,17.90
2018-09-13T11:28:13.741Z,17.90
2018-09-13T11:30:42.316Z,18.00
2018-09-13T11:33:10.744Z,17.90
2018-09-13T11:35:39.259Z,18.00
2018-09-13T11:38:07.810Z,18.00
2018-09-13T11:40:36.499Z,18.00
2018-09-13T11:43:04.895Z,18.00
2018-09-13T11:45:33.372Z,18.00
2018-09-13T11:48:01.817Z,18.00
2018-09-13T11:50:30.321Z,18.10
2018-09-13T11:52:58.764Z,18.10
2018-09-13T11:55:27.348Z,18.10
2018-09-13T11:57:55.844Z,18.10
2018-09-13T12:00:24.330Z,18.10
2018-09-13T12:02:52.837Z,18.10
2018-09-13T12:05:27.867Z,18.10
2018-09-13T12:07:56.387Z,18.20
2018-09-13T12:10:24.870Z,18.20
2018-09-13T12:12:53.385Z,18.20
2018-09-13T12:15:21.895Z,18.20
2018-09-13T12:17:50.468Z,18.20
2018-09-13T12:20:18.875Z,18.10
2018-09-13T12:22:47.370Z,18.20
2018-09-13T12:25:15.893Z,18.30
2018-09-13T12:27:44.505Z,18.30
2018-09-13T12:30:13.061Z,18.40
2018-09-13T12:32:41.878Z,18.50
2018-09-13T12:35:10.407Z,18.50
2018-09-13T12:37:38.925Z,18.50
2018-09-13T12:40:08.046Z,18.50
2018-09-13T12:42:36.586Z,18.40
2018-09-13T12:45:05.211Z,18.40
2018-09-13T12:47:33.734Z,18.30
2018-09-13T12:50:02.328Z,18.30
2018-09-13T12:52:30.839Z,18.30
2018-09-13T12:54:59.391Z,18.30
2018-09-13T12:57:27.893Z,18.20
2018-09-13T12:59:56.492Z,18.30
2018-09-13T13:02:25.021Z,18.30
2018-09-13T13:04:53.589Z,18.20
2018-09-13T13:07:22.068Z,18.30
2018-09-13T13:09:50.548Z,18.40
2018-09-13T13:12:19.032Z,18.60
2018-09-13T13:14:47.565Z,18.70
2018-09-13T13:17:16.011Z,18.90
2018-09-13T13:19:44.513Z,19.00
2018-09-13T13:22:13.016Z,18.90
2018-09-13T13:24:41.560Z,18.90
2018-09-13T13:27:10.156Z,18.90
2018-09-13T13:29:38.896Z,18.90
2018-09-13T13:32:07.450Z,18.80
2018-09-13T13:34:36.077Z,18.70
2018-09-13T13:37:04.645Z,18.70
2018-09-13T13:39:33.200Z,18.60
2018-09-13T13:42:01.727Z,18.60
2018-09-13T13:44:30.199Z,18.50
2018-09-13T13:46:58.738Z,18.50
2018-09-13T13:49:27.316Z,18.50
2018-09-13T13:51:55.812Z,18.60
2018-09-13T13:54:24.320Z,18.70
2018-09-13T13:56:52.868Z,18.60
2018-09-13T13:59:21.354Z,18.60
2018-09-13T14:01:49.876Z,18.60
2018-09-13T14:04:18.394Z,18.60
2018-09-13T14:06:46.926Z,18.60
2018-09-13T14:09:15.453Z,18.60
2018-09-13T14:11:43.963Z,18.60
2018-09-13T14:14:12.473Z,18.60
2018-09-13T14:16:40.963Z,18.60
2018-09-13T14:19:09.513Z,18.60
2018-09-13T14:21:37.991Z,18.60
2018-09-13T14:24:06.614Z,18.70
2018-09-13T14:26:35.116Z,18.80
2018-09-13T14:29:03.658Z,19.00
2018-09-13T14:31:32.168Z,19.10
2018-09-13T14:34:00.668Z,19.50
2018-09-13T14:36:29.184Z,19.80
2018-09-13T14:38:57.680Z,19.90
2018-09-13T14:41:26.199Z,20.10
2018-09-13T14:43:54.741Z,20.30
2018-09-13T14:46:23.236Z,20.30
2018-09-13T14:48:51.740Z,20.30
2018-09-13T14:51:20.200Z,20.50
2018-09-13T14:53:48.751Z,20.60
2018-09-13T14:56:17.307Z,20.80
2018-09-13T14:58:45.761Z,20.80
2018-09-13T15:01:14.321Z,20.90
2018-09-13T15:03:42.877Z,21.10
2018-09-13T15:06:11.419Z,21.40
2018-09-13T15:08:39.909Z,21.60
2018-09-13T15:11:08.417Z,21.70
2018-09-13T15:13:36.930Z,21.80
2018-09-13T15:16:05.423Z,21.70
2018-09-13T15:18:33.938Z,21.60
2018-09-13T15:21:02.400Z,21.50
2018-09-13T15:23:30.883Z,21.50
2018-09-13T15:26:00.288Z,21.60
2018-09-13T15:28:28.804Z,21.80
2018-09-13T15:30:57.394Z,21.80
2018-09-13T15:33:25.897Z,21.80
2018-09-13T15:35:54.403Z,21.90
2018-09-13T15:38:22.874Z,21.90
2018-09-13T15:40:51.385Z,21.80
2018-09-13T15:43:19.942Z,21.90
2018-09-13T15:45:48.503Z,21.80
2018-09-13T15:48:17.033Z,21.70
2018-09-13T15:50:45.506Z,21.60
2018-09-13T15:53:14.029Z,21.20
2018-09-13T15:55:42.535Z,20.60
2018-09-13T15:58:10.999Z,20.20
2018-09-13T16:00:39.554Z,19.80
2018-09-13T16:03:08.076Z,19.50
2018-09-13T16:05:36.720Z,19.20
2018-09-13T16:08:05.317Z,19.00
2018-09-13T16:10:33.925Z,18.80
2018-09-13T16:13:05.519Z,18.60
2018-09-13T16:15:33.928Z,18.40
2018-09-13T16:18:02.445Z,18.20
2018-09-13T16:20:31.014Z,18.10
2018-09-13T16:22:59.499Z,18.00
2018-09-13T16:25:28.070Z,17.90
2018-09-13T16:27:56.632Z,17.80
2018-09-13T16:30:25.151Z,17.70
2018-09-13T16:32:53.676Z,17.60
2018-09-13T16:35:22.184Z,17.50
2018-09-13T16:37:55.967Z,17.40
2018-09-13T16:40:29.848Z,17.30
2018-09-13T16:43:03.750Z,17.20
2018-09-13T16:45:32.277Z,17.20
2018-09-13T16:48:02.268Z,17.10
2018-09-13T16:50:30.801Z,17.10
2018-09-13T16:52:59.344Z,17.00
2018-09-13T16:55:27.903Z,16.90
2018-09-13T16:57:56.378Z,16.80
2018-09-13T17:00:26.030Z,16.70
2018-09-13T17:02:54.969Z,16.50
2018-09-13T17:05:23.547Z,16.40
2018-09-13T17:07:52.216Z,16.20
2018-09-13T17:10:20.696Z,16.10
2018-09-13T17:12:49.224Z,16.00
2018-09-13T17:15:17.787Z,15.90
2018-09-13T17:17:46.334Z,15.70
2018-09-13T17:20:14.970Z,15.60
2018-09-13T17:22:43.492Z,15.50
2018-09-13T17:25:11.970Z,15.40
2018-09-13T17:27:40.480Z,15.30
2018-09-13T17:30:09.049Z,15.20
2018-09-13T17:32:37.580Z,15.10
2018-09-13T17:35:06.092Z,15.00
2018-09-13T17:37:34.611Z,14.90
2018-09-13T17:40:03.179Z,14.80
2018-09-13T17:42:31.649Z,14.70
2018-09-13T17:45:00.170Z,14.60
2018-09-13T17:47:28.713Z,14.50
2018-09-13T17:49:57.262Z,14.40
2018-09-13T17:52:25.908Z,14.30
2018-09-13T17:54:54.438Z,14.20
2018-09-13T17:57:22.965Z,14.20
2018-09-13T17:59:51.464Z,14.10
2018-09-13T18:02:20.010Z,14.00
2018-09-13T18:04:48.492Z,14.00
2018-09-13T18:07:17.040Z,13.90
2018-09-13T18:09:45.540Z,13.80
2018-09-13T18:12:14.076Z,13.70
2018-09-13T18:14:42.564Z,13.60
2018-09-13T18:17:11.093Z,13.60
2018-09-13T18:19:39.571Z,13.50
2018-09-13T18:22:08.110Z,13.50
2018-09-13T18:24:36.654Z,13.50
2018-09-13T18:27:05.225Z,13.40
2018-09-13T18:29:33.703Z,13.40
2018-09-13T18:32:02.196Z,13.30
2018-09-13T18:34:30.757Z,13.20
2018-09-13T18:36:59.261Z,13.10
2018-09-13T18:39:27.788Z,12.90
2018-09-13T18:41:56.259Z,12.80
2018-09-13T18:44:24.841Z,12.70
2018-09-13T18:46:53.360Z,12.60
2018-09-13T18:49:21.888Z,12.40
2018-09-13T18:51:50.392Z,12.40
2018-09-13T18:54:19.061Z,12.30
2018-09-13T18:56:47.559Z,12.20
2018-09-13T18:59:16.114Z,12.20
2018-09-13T19:01:44.609Z,12.10
2018-09-13T19:04:13.187Z,12.00
2018-09-13T19:06:41.701Z,12.00
2018-09-13T19:09:11.055Z,11.90
2018-09-13T19:11:39.659Z,11.90
2018-09-13T19:14:08.145Z,11.80
2018-09-13T19:16:36.628Z,11.80
2018-09-13T19:19:05.208Z,11.70
2018-09-13T19:21:33.677Z,11.70
2018-09-13T19:24:02.497Z,11.60
2018-09-13T19:26:30.985Z,11.60
2018-09-13T19:28:59.544Z,11.50
2018-09-13T19:31:28.047Z,11.40
2018-09-13T19:33:56.602Z,11.40
2018-09-13T19:36:25.128Z,11.30
2018-09-13T19:38:53.708Z,11.20
2018-09-13T19:41:22.258Z,11.10
2018-09-13T19:43:50.896Z,11.00
2018-09-13T19:46:19.460Z,10.90
2018-09-13T19:48:48.052Z,10.90
2018-09-13T19:51:16.667Z,10.80
2018-09-13T19:53:45.138Z,10.70
2018-09-13T19:56:13.752Z,10.60
2018-09-13T19:58:42.313Z,10.50
2018-09-13T20:01:10.839Z,10.50
2018-09-13T20:03:39.529Z,10.40
2018-09-13T20:06:08.064Z,10.40
2018-09-13T20:08:36.563Z,10.40
2018-09-13T20:11:05.073Z,10.50
2018-09-13T20:13:33.633Z,10.40
2018-09-13T20:16:02.169Z,10.40
2018-09-13T20:18:30.732Z,10.30
2018-09-13T20:20:59.249Z,10.30
2018-09-13T20:23:27.773Z,10.30
2018-09-13T20:25:56.637Z,10.20
2018-09-13T20:28:25.332Z,10.20
2018-09-13T20:30:53.807Z,10.20
2018-09-13T20:33:22.282Z,10.20
2018-09-13T20:35:50.774Z,10.20
2018-09-13T20:38:19.279Z,10.20
2018-09-13T20:40:47.798Z,10.10
2018-09-13T20:43:16.631Z,10.10
2018-09-13T20:45:45.284Z,10.10
2018-09-13T20:48:13.787Z,10.00
2018-09-13T20:50:42.371Z,10.00
2018-09-13T20:53:10.885Z,10.00
2018-09-13T20:55:39.375Z,9.90
2018-09-13T20:58:07.922Z,9.90
2018-09-13T21:00:36.507Z,9.90
2018-09-13T21:03:05.009Z,9.90
2018-09-13T21:05:33.529Z,9.80
2018-09-13T21:08:02.049Z,9.80
2018-09-13T21:10:30.568Z,9.70
2018-09-13T21:12:59.043Z,9.70
2018-09-13T21:15:27.588Z,9.70
2018-09-13T21:17:56.058Z,9.60
2018-09-13T21:20:24.591Z,9.60
2018-09-13T21:22:53.056Z,9.60
2018-09-13T21:25:21.692Z,9.60
2018-09-13T21:27:50.291Z,9.50
2018-09-13T21:30:18.832Z,9.40
2018-09-13T21:32:47.397Z,9.40
2018-09-13T21:35:15.816Z,9.30
2018-09-13T21:37:45.273Z,9.20
2018-09-13T21:40:13.753Z,9.20
2018-09-13T21:42:42.333Z,9.20
2018-09-13T21:45:11.407Z,9.20
2018-09-13T21:47:40.530Z,9.20
2018-09-13T21:50:09.048Z,9.20
2018-09-13T21:52:39.670Z,9.20
2018-09-13T21:55:08.462Z,9.30
2018-09-13T21:57:37.009Z,9.30
2018-09-13T22:00:08.738Z,9.30
2018-09-13T22:02:37.371Z,9.30
2018-09-13T22:05:07.888Z,9.30
2018-09-13T22:07:39.084Z,9.30
2018-09-13T22:10:07.606Z,9.30
2018-09-13T22:12:36.142Z,9.30
2018-09-13T22:15:05.961Z,9.30
2018-09-13T22:17:35.832Z,9.30
2018-09-13T22:20:06.581Z,9.30
2018-09-13T22:22:35.446Z,9.30
2018-09-13T22:25:05.481Z,9.30
2018-09-13T22:27:34.920Z,9.20
2018-09-13T22:30:03.585Z,9.20
2018-09-13T22:32:34.084Z,9.10
2018-09-13T22:35:04.285Z,9.00
2018-09-13T22:37:34.873Z,8.90
2018-09-13T22:40:04.006Z,8.90
2018-09-13T22:42:32.584Z,8.80
2018-09-13T22:45:01.210Z,8.80
2018-09-13T22:47:30.612Z,8.70
2018-09-13T22:49:59.760Z,8.60
2018-09-13T22:52:28.314Z,8.50
2018-09-13T22:54:57.090Z,8.40
2018-09-13T22:57:28.115Z,8.40
2018-09-13T22:59:56.633Z,8.30
2018-09-13T23:02:25.104Z,8.20
2018-09-13T23:04:53.658Z,8.20
2018-09-13T23:07:23.573Z,8.20
2018-09-13T23:09:52.648Z,8.10
2018-09-13T23:12:21.719Z,8.10
2018-09-13T23:14:50.247Z,8.00
2018-09-13T23:17:18.797Z,8.00
2018-09-13T23:19:47.524Z,7.90
2018-09-13T23:22:15.964Z,7.90
2018-09-13T23:24:44.460Z,7.80
2018-09-13T23:27:12.907Z,7.80
2018-09-13T23:29:41.399Z,7.70
2018-09-13T23:32:09.880Z,7.70
2018-09-13T23:34:38.368Z,7.70
2018-09-13T23:37:06.852Z,7.70
2018-09-13T23:39:35.569Z,7.60
2018-09-13T23:42:03.926Z,7.60
2018-09-13T23:44:32.454Z,7.60
2018-09-13T23:47:01.036Z,7.60
2018-09-13T23:49:29.489Z,7.60
2018-09-13T23:51:58.009Z,7.60
2018-09-13T23:54:26.517Z,7.60
2018-09-13T23:56:54.973Z,7.50
2018-09-13T23:59:23.603Z,7.50
